sensor_id;sensor_type;location;lat;lon;timestamp;P1;durP1;ratioP1;P2;durP2;ratioP2
52106;SDS011;38105;52.968;5.974;2023-04-25T00:01:24;22.33;;;3.85;;
52106;SDS011;38105;52.968;5.974;2023-04-25T00:03:50;30.15;;;4.35;;
52106;SDS011;38105;52.968;5.974;2023-04-25T00:06:16;19.83;;;4.30;;
52106;SDS011;38105;52.968;5.974;2023-04-25T00:08:42;21.23;;;3.50;;
52106;SDS011;38105;52.968;5.974;2023-04-25T00:11:08;21.80;;;4.03;;
52106;SDS011;38105;52.968;5.974;2023-04-25T00:13:34;17.00;;;3.70;;
52106;SDS011;38105;52.968;5.974;2023-04-25T00:16:00;16.80;;;3.15;;
52106;SDS011;38105;52.968;5.974;2023-04-25T00:18:25;19.75;;;3.50;;
52106;SDS011;38105;52.968;5.974;2023-04-25T00:20:54;24.55;;;3.78;;
52106;SDS011;38105;52.968;5.974;2023-04-25T00:23:19;19.17;;;3.65;;
52106;SDS011;38105;52.968;5.974;2023-04-25T00:25:46;23.08;;;4.30;;
52106;SDS011;38105;52.968;5.974;2023-04-25T00:28:13;22.58;;;4.07;;
52106;SDS011;38105;52.968;5.974;2023-04-25T00:30:39;17.50;;;3.67;;
52106;SDS011;38105;52.968;5.974;2023-04-25T00:33:05;27.23;;;4.53;;
52106;SDS011;38105;52.968;5.974;2023-04-25T00:35:32;22.85;;;4.30;;
52106;SDS011;38105;52.968;5.974;2023-04-25T00:37:57;19.70;;;3.88;;
52106;SDS011;38105;52.968;5.974;2023-04-25T00:40:23;23.83;;;3.85;;
52106;SDS011;38105;52.968;5.974;2023-04-25T00:42:50;21.92;;;3.53;;
52106;SDS011;38105;52.968;5.974;2023-04-25T00:45:17;17.48;;;3.55;;
52106;SDS011;38105;52.968;5.974;2023-04-25T00:47:43;22.27;;;3.30;;
52106;SDS011;38105;52.968;5.974;2023-04-25T00:50:09;19.55;;;3.58;;
52106;SDS011;38105;52.968;5.974;2023-04-25T00:52:39;19.65;;;3.33;;
52106;SDS011;38105;52.968;5.974;2023-04-25T00:55:06;22.35;;;4.18;;
52106;SDS011;38105;52.968;5.974;2023-04-25T00:57:33;19.40;;;4.22;;
52106;SDS011;38105;52.968;5.974;2023-04-25T00:59:59;29.02;;;4.78;;
52106;SDS011;38105;52.968;5.974;2023-04-25T01:02:25;16.10;;;3.50;;
52106;SDS011;38105;52.968;5.974;2023-04-25T01:04:52;28.67;;;4.45;;
52106;SDS011;38105;52.968;5.974;2023-04-25T01:07:18;24.90;;;3.78;;
52106;SDS011;38105;52.968;5.974;2023-04-25T01:09:43;28.67;;;3.92;;
52106;SDS011;38105;52.968;5.974;2023-04-25T01:12:09;23.00;;;3.90;;
52106;SDS011;38105;52.968;5.974;2023-04-25T01:14:35;17.52;;;3.60;;
52106;SDS011;38105;52.968;5.974;2023-04-25T01:17:01;22.58;;;3.95;;
52106;SDS011;38105;52.968;5.974;2023-04-25T01:19:27;17.40;;;3.58;;
52106;SDS011;38105;52.968;5.974;2023-04-25T01:21:52;17.20;;;2.65;;
52106;SDS011;38105;52.968;5.974;2023-04-25T01:24:18;19.45;;;3.50;;
52106;SDS011;38105;52.968;5.974;2023-04-25T01:26:44;20.67;;;3.45;;
52106;SDS011;38105;52.968;5.974;2023-04-25T01:29:15;15.45;;;2.47;;
52106;SDS011;38105;52.968;5.974;2023-04-25T01:31:43;15.25;;;2.75;;
52106;SDS011;38105;52.968;5.974;2023-04-25T01:34:09;13.88;;;2.47;;
52106;SDS011;38105;52.968;5.974;2023-04-25T01:36:35;16.92;;;2.95;;
52106;SDS011;38105;52.968;5.974;2023-04-25T01:39:01;17.05;;;2.92;;
52106;SDS011;38105;52.968;5.974;2023-04-25T01:41:27;13.68;;;2.92;;
52106;SDS011;38105;52.968;5.974;2023-04-25T01:43:53;24.73;;;4.65;;
52106;SDS011;38105;52.968;5.974;2023-04-25T01:46:20;18.08;;;3.42;;
52106;SDS011;38105;52.968;5.974;2023-04-25T01:48:45;15.52;;;2.80;;
52106;SDS011;38105;52.968;5.974;2023-04-25T01:51:11;17.27;;;3.00;;
52106;SDS011;38105;52.968;5.974;2023-04-25T01:53:37;20.10;;;3.40;;
52106;SDS011;38105;52.968;5.974;2023-04-25T01:56:04;20.58;;;3.30;;
52106;SDS011;38105;52.968;5.974;2023-04-25T01:58:30;21.83;;;3.50;;
52106;SDS011;38105;52.968;5.974;2023-04-25T02:00:56;18.70;;;3.10;;
52106;SDS011;38105;52.968;5.974;2023-04-25T02:03:22;20.67;;;3.35;;
52106;SDS011;38105;52.968;5.974;2023-04-25T02:05:48;22.33;;;3.53;;
52106;SDS011;38105;52.968;5.974;2023-04-25T02:08:13;22.17;;;3.65;;
52106;SDS011;38105;52.968;5.974;2023-04-25T02:10:42;27.25;;;4.22;;
52106;SDS011;38105;52.968;5.974;2023-04-25T02:13:08;19.55;;;3.45;;
52106;SDS011;38105;52.968;5.974;2023-04-25T02:15:34;16.50;;;2.83;;
52106;SDS011;38105;52.968;5.974;2023-04-25T02:17:59;20.35;;;3.00;;
52106;SDS011;38105;52.968;5.974;2023-04-25T02:20:25;20.50;;;3.00;;
52106;SDS011;38105;52.968;5.974;2023-04-25T02:22:52;13.45;;;2.75;;
52106;SDS011;38105;52.968;5.974;2023-04-25T02:25:18;15.85;;;2.10;;
52106;SDS011;38105;52.968;5.974;2023-04-25T02:27:45;12.45;;;2.38;;
52106;SDS011;38105;52.968;5.974;2023-04-25T02:30:11;13.13;;;2.50;;
52106;SDS011;38105;52.968;5.974;2023-04-25T02:32:38;18.38;;;2.30;;
52106;SDS011;38105;52.968;5.974;2023-04-25T02:35:04;11.07;;;1.83;;
52106;SDS011;38105;52.968;5.974;2023-04-25T02:37:33;12.35;;;1.67;;
52106;SDS011;38105;52.968;5.974;2023-04-25T02:40:00;10.75;;;1.98;;
52106;SDS011;38105;52.968;5.974;2023-04-25T02:42:26;6.93;;;1.65;;
52106;SDS011;38105;52.968;5.974;2023-04-25T02:44:52;9.32;;;1.92;;
52106;SDS011;38105;52.968;5.974;2023-04-25T02:47:18;7.82;;;1.58;;
52106;SDS011;38105;52.968;5.974;2023-04-25T02:49:43;12.05;;;1.55;;
52106;SDS011;38105;52.968;5.974;2023-04-25T02:52:11;11.00;;;1.92;;
52106;SDS011;38105;52.968;5.974;2023-04-25T02:54:37;11.10;;;2.05;;
52106;SDS011;38105;52.968;5.974;2023-04-25T02:57:03;14.40;;;1.98;;
52106;SDS011;38105;52.968;5.974;2023-04-25T02:59:29;15.15;;;1.48;;
52106;SDS011;38105;52.968;5.974;2023-04-25T03:01:55;11.95;;;2.10;;
52106;SDS011;38105;52.968;5.974;2023-04-25T03:04:21;14.25;;;1.90;;
52106;SDS011;38105;52.968;5.974;2023-04-25T03:06:48;13.00;;;1.98;;
52106;SDS011;38105;52.968;5.974;2023-04-25T03:09:15;12.20;;;2.05;;
52106;SDS011;38105;52.968;5.974;2023-04-25T03:11:41;10.68;;;1.60;;
52106;SDS011;38105;52.968;5.974;2023-04-25T03:14:07;10.95;;;1.70;;
52106;SDS011;38105;52.968;5.974;2023-04-25T03:16:32;13.85;;;2.17;;
52106;SDS011;38105;52.968;5.974;2023-04-25T03:18:58;10.57;;;2.15;;
52106;SDS011;38105;52.968;5.974;2023-04-25T03:21:24;13.85;;;2.10;;
52106;SDS011;38105;52.968;5.974;2023-04-25T03:23:51;10.93;;;1.90;;
52106;SDS011;38105;52.968;5.974;2023-04-25T03:26:17;9.20;;;1.85;;
52106;SDS011;38105;52.968;5.974;2023-04-25T03:28:42;11.52;;;2.20;;
52106;SDS011;38105;52.968;5.974;2023-04-25T03:31:08;14.23;;;2.60;;
52106;SDS011;38105;52.968;5.974;2023-04-25T03:33:34;9.35;;;1.65;;
52106;SDS011;38105;52.968;5.974;2023-04-25T03:35:59;9.30;;;1.83;;
52106;SDS011;38105;52.968;5.974;2023-04-25T03:38:25;8.40;;;1.42;;
52106;SDS011;38105;52.968;5.974;2023-04-25T03:40:51;13.65;;;2.55;;
52106;SDS011;38105;52.968;5.974;2023-04-25T03:43:16;12.25;;;1.98;;
52106;SDS011;38105;52.968;5.974;2023-04-25T03:45:42;10.85;;;1.90;;
52106;SDS011;38105;52.968;5.974;2023-04-25T03:48:08;11.15;;;2.13;;
52106;SDS011;38105;52.968;5.974;2023-04-25T03:50:34;12.05;;;1.90;;
52106;SDS011;38105;52.968;5.974;2023-04-25T03:53:00;10.65;;;2.28;;
52106;SDS011;38105;52.968;5.974;2023-04-25T03:55:25;14.65;;;2.50;;
52106;SDS011;38105;52.968;5.974;2023-04-25T03:57:51;16.05;;;2.60;;
52106;SDS011;38105;52.968;5.974;2023-04-25T04:00:17;14.05;;;2.22;;
52106;SDS011;38105;52.968;5.974;2023-04-25T04:02:42;11.60;;;1.73;;
52106;SDS011;38105;52.968;5.974;2023-04-25T04:05:08;22.95;;;2.05;;
52106;SDS011;38105;52.968;5.974;2023-04-25T04:07:34;18.50;;;2.65;;
52106;SDS011;38105;52.968;5.974;2023-04-25T04:10:05;14.02;;;1.90;;
52106;SDS011;38105;52.968;5.974;2023-04-25T04:12:31;17.75;;;2.10;;
52106;SDS011;38105;52.968;5.974;2023-04-25T04:14:57;18.27;;;2.90;;
52106;SDS011;38105;52.968;5.974;2023-04-25T04:17:22;22.17;;;3.05;;
52106;SDS011;38105;52.968;5.974;2023-04-25T04:19:48;17.48;;;2.22;;
52106;SDS011;38105;52.968;5.974;2023-04-25T04:22:14;14.18;;;2.10;;
52106;SDS011;38105;52.968;5.974;2023-04-25T04:24:40;12.20;;;2.13;;
52106;SDS011;38105;52.968;5.974;2023-04-25T04:27:09;15.20;;;2.13;;
52106;SDS011;38105;52.968;5.974;2023-04-25T04:29:35;14.98;;;2.55;;
52106;SDS011;38105;52.968;5.974;2023-04-25T04:32:01;14.52;;;2.58;;
52106;SDS011;38105;52.968;5.974;2023-04-25T04:34:28;11.68;;;2.15;;
52106;SDS011;38105;52.968;5.974;2023-04-25T04:36:54;18.58;;;2.70;;
52106;SDS011;38105;52.968;5.974;2023-04-25T04:39:20;12.93;;;1.98;;
52106;SDS011;38105;52.968;5.974;2023-04-25T04:41:46;11.80;;;2.22;;
52106;SDS011;38105;52.968;5.974;2023-04-25T04:44:11;11.13;;;2.20;;
52106;SDS011;38105;52.968;5.974;2023-04-25T04:46:37;10.88;;;1.95;;
52106;SDS011;38105;52.968;5.974;2023-04-25T04:49:07;16.35;;;2.40;;
52106;SDS011;38105;52.968;5.974;2023-04-25T04:51:34;18.85;;;2.83;;
52106;SDS011;38105;52.968;5.974;2023-04-25T04:53:59;14.48;;;2.17;;
52106;SDS011;38105;52.968;5.974;2023-04-25T04:56:28;12.38;;;1.98;;
52106;SDS011;38105;52.968;5.974;2023-04-25T04:58:56;9.40;;;2.13;;
52106;SDS011;38105;52.968;5.974;2023-04-25T05:01:22;11.73;;;2.13;;
52106;SDS011;38105;52.968;5.974;2023-04-25T05:03:47;15.07;;;2.65;;
52106;SDS011;38105;52.968;5.974;2023-04-25T05:06:13;12.30;;;2.05;;
52106;SDS011;38105;52.968;5.974;2023-04-25T05:08:39;9.55;;;1.73;;
52106;SDS011;38105;52.968;5.974;2023-04-25T05:11:04;10.27;;;1.48;;
52106;SDS011;38105;52.968;5.974;2023-04-25T05:13:30;14.38;;;2.00;;
52106;SDS011;38105;52.968;5.974;2023-04-25T05:15:56;9.05;;;1.50;;
52106;SDS011;38105;52.968;5.974;2023-04-25T05:18:22;7.85;;;1.83;;
52106;SDS011;38105;52.968;5.974;2023-04-25T05:20:47;7.18;;;1.30;;
52106;SDS011;38105;52.968;5.974;2023-04-25T05:23:13;9.50;;;1.60;;
52106;SDS011;38105;52.968;5.974;2023-04-25T05:25:38;13.07;;;2.28;;
52106;SDS011;38105;52.968;5.974;2023-04-25T05:28:04;12.98;;;2.20;;
52106;SDS011;38105;52.968;5.974;2023-04-25T05:30:30;11.00;;;1.67;;
52106;SDS011;38105;52.968;5.974;2023-04-25T05:32:56;7.75;;;1.10;;
52106;SDS011;38105;52.968;5.974;2023-04-25T05:35:22;9.02;;;1.58;;
52106;SDS011;38105;52.968;5.974;2023-04-25T05:37:47;10.85;;;1.88;;
52106;SDS011;38105;52.968;5.974;2023-04-25T05:40:13;10.32;;;2.13;;
52106;SDS011;38105;52.968;5.974;2023-04-25T05:42:39;17.02;;;2.08;;
52106;SDS011;38105;52.968;5.974;2023-04-25T05:45:05;9.23;;;1.42;;
52106;SDS011;38105;52.968;5.974;2023-04-25T05:47:31;10.52;;;1.60;;
52106;SDS011;38105;52.968;5.974;2023-04-25T05:49:56;9.02;;;1.98;;
52106;SDS011;38105;52.968;5.974;2023-04-25T05:52:22;13.50;;;1.92;;
52106;SDS011;38105;52.968;5.974;2023-04-25T05:54:48;11.30;;;1.65;;
52106;SDS011;38105;52.968;5.974;2023-04-25T05:57:23;15.18;;;2.63;;
52106;SDS011;38105;52.968;5.974;2023-04-25T05:59:50;8.98;;;1.60;;
52106;SDS011;38105;52.968;5.974;2023-04-25T06:02:16;11.25;;;1.77;;
52106;SDS011;38105;52.968;5.974;2023-04-25T06:04:43;10.40;;;1.38;;
52106;SDS011;38105;52.968;5.974;2023-04-25T06:07:09;9.90;;;1.58;;
52106;SDS011;38105;52.968;5.974;2023-04-25T06:09:35;11.40;;;1.60;;
52106;SDS011;38105;52.968;5.974;2023-04-25T06:12:00;11.95;;;1.70;;
52106;SDS011;38105;52.968;5.974;2023-04-25T06:14:26;13.70;;;1.90;;
52106;SDS011;38105;52.968;5.974;2023-04-25T06:16:52;9.32;;;1.95;;
52106;SDS011;38105;52.968;5.974;2023-04-25T06:19:18;8.77;;;1.90;;
52106;SDS011;38105;52.968;5.974;2023-04-25T06:21:44;8.55;;;1.63;;
52106;SDS011;38105;52.968;5.974;2023-04-25T06:24:09;14.55;;;3.17;;
52106;SDS011;38105;52.968;5.974;2023-04-25T06:26:35;14.63;;;2.15;;
52106;SDS011;38105;52.968;5.974;2023-04-25T06:29:00;11.68;;;1.77;;
52106;SDS011;38105;52.968;5.974;2023-04-25T06:31:26;12.23;;;2.50;;
52106;SDS011;38105;52.968;5.974;2023-04-25T06:33:52;12.77;;;2.00;;
52106;SDS011;38105;52.968;5.974;2023-04-25T06:36:20;13.85;;;2.22;;
52106;SDS011;38105;52.968;5.974;2023-04-25T06:38:50;7.47;;;1.75;;
52106;SDS011;38105;52.968;5.974;2023-04-25T06:41:16;11.50;;;1.85;;
52106;SDS011;38105;52.968;5.974;2023-04-25T06:43:42;7.90;;;1.50;;
52106;SDS011;38105;52.968;5.974;2023-04-25T06:46:08;6.80;;;1.23;;
52106;SDS011;38105;52.968;5.974;2023-04-25T06:48:33;9.10;;;1.80;;
52106;SDS011;38105;52.968;5.974;2023-04-25T06:50:59;10.13;;;1.73;;
52106;SDS011;38105;52.968;5.974;2023-04-25T06:53:25;8.27;;;1.48;;
52106;SDS011;38105;52.968;5.974;2023-04-25T06:55:51;6.65;;;1.17;;
52106;SDS011;38105;52.968;5.974;2023-04-25T06:58:17;7.97;;;1.40;;
52106;SDS011;38105;52.968;5.974;2023-04-25T07:00:43;7.40;;;1.58;;
52106;SDS011;38105;52.968;5.974;2023-04-25T07:03:08;8.80;;;1.63;;
52106;SDS011;38105;52.968;5.974;2023-04-25T07:05:34;4.85;;;1.15;;
52106;SDS011;38105;52.968;5.974;2023-04-25T07:08:00;7.13;;;1.40;;
52106;SDS011;38105;52.968;5.974;2023-04-25T07:10:26;10.65;;;1.73;;
52106;SDS011;38105;52.968;5.974;2023-04-25T07:12:51;8.77;;;1.58;;
52106;SDS011;38105;52.968;5.974;2023-04-25T07:15:17;9.77;;;1.80;;
52106;SDS011;38105;52.968;5.974;2023-04-25T07:17:43;8.20;;;1.60;;
52106;SDS011;38105;52.968;5.974;2023-04-25T07:20:08;10.35;;;1.40;;
52106;SDS011;38105;52.968;5.974;2023-04-25T07:22:35;7.32;;;1.20;;
52106;SDS011;38105;52.968;5.974;2023-04-25T07:25:00;6.93;;;1.30;;
52106;SDS011;38105;52.968;5.974;2023-04-25T07:27:27;9.45;;;1.58;;
52106;SDS011;38105;52.968;5.974;2023-04-25T07:29:52;11.38;;;2.20;;
52106;SDS011;38105;52.968;5.974;2023-04-25T07:32:18;8.50;;;1.30;;
52106;SDS011;38105;52.968;5.974;2023-04-25T07:34:44;7.93;;;1.40;;
52106;SDS011;38105;52.968;5.974;2023-04-25T07:37:10;5.57;;;1.00;;
52106;SDS011;38105;52.968;5.974;2023-04-25T07:39:36;6.97;;;0.93;;
52106;SDS011;38105;52.968;5.974;2023-04-25T07:42:02;5.70;;;1.23;;
52106;SDS011;38105;52.968;5.974;2023-04-25T07:44:28;3.97;;;1.10;;
52106;SDS011;38105;52.968;5.974;2023-04-25T07:46:55;4.88;;;0.95;;
52106;SDS011;38105;52.968;5.974;2023-04-25T07:49:21;5.50;;;0.85;;
52106;SDS011;38105;52.968;5.974;2023-04-25T07:51:47;5.05;;;1.00;;
52106;SDS011;38105;52.968;5.974;2023-04-25T07:54:13;10.13;;;1.30;;
52106;SDS011;38105;52.968;5.974;2023-04-25T07:56:40;9.00;;;1.75;;
52106;SDS011;38105;52.968;5.974;2023-04-25T07:59:06;6.50;;;1.20;;
52106;SDS011;38105;52.968;5.974;2023-04-25T08:01:31;5.07;;;0.82;;
52106;SDS011;38105;52.968;5.974;2023-04-25T08:03:58;8.35;;;1.35;;
52106;SDS011;38105;52.968;5.974;2023-04-25T08:06:24;7.95;;;1.67;;
52106;SDS011;38105;52.968;5.974;2023-04-25T08:08:50;8.45;;;1.35;;
52106;SDS011;38105;52.968;5.974;2023-04-25T08:11:16;8.15;;;1.40;;
52106;SDS011;38105;52.968;5.974;2023-04-25T08:13:42;7.45;;;1.45;;
52106;SDS011;38105;52.968;5.974;2023-04-25T08:16:07;8.38;;;1.90;;
52106;SDS011;38105;52.968;5.974;2023-04-25T08:18:33;8.98;;;1.17;;
52106;SDS011;38105;52.968;5.974;2023-04-25T08:20:59;6.38;;;1.00;;
52106;SDS011;38105;52.968;5.974;2023-04-25T08:23:24;5.82;;;0.80;;
52106;SDS011;38105;52.968;5.974;2023-04-25T08:25:50;5.45;;;0.90;;
52106;SDS011;38105;52.968;5.974;2023-04-25T08:28:16;5.68;;;0.98;;
52106;SDS011;38105;52.968;5.974;2023-04-25T08:30:41;6.05;;;1.20;;
52106;SDS011;38105;52.968;5.974;2023-04-25T08:33:07;4.72;;;0.82;;
52106;SDS011;38105;52.968;5.974;2023-04-25T08:35:33;4.97;;;1.00;;
52106;SDS011;38105;52.968;5.974;2023-04-25T08:37:58;8.60;;;1.40;;
52106;SDS011;38105;52.968;5.974;2023-04-25T08:40:26;9.25;;;1.75;;
52106;SDS011;38105;52.968;5.974;2023-04-25T08:42:56;6.93;;;1.40;;
52106;SDS011;38105;52.968;5.974;2023-04-25T08:45:22;7.13;;;1.40;;
52106;SDS011;38105;52.968;5.974;2023-04-25T08:47:48;12.57;;;1.65;;
52106;SDS011;38105;52.968;5.974;2023-04-25T08:50:17;7.72;;;1.73;;
52106;SDS011;38105;52.968;5.974;2023-04-25T08:52:44;7.85;;;1.75;;
52106;SDS011;38105;52.968;5.974;2023-04-25T08:55:12;10.23;;;1.52;;
52106;SDS011;38105;52.968;5.974;2023-04-25T08:57:38;8.45;;;1.75;;
52106;SDS011;38105;52.968;5.974;2023-04-25T09:00:06;7.20;;;1.85;;
52106;SDS011;38105;52.968;5.974;2023-04-25T09:02:33;8.80;;;1.60;;
52106;SDS011;38105;52.968;5.974;2023-04-25T09:04:59;8.82;;;1.75;;
52106;SDS011;38105;52.968;5.974;2023-04-25T09:07:24;10.00;;;1.50;;
52106;SDS011;38105;52.968;5.974;2023-04-25T09:09:50;8.50;;;1.58;;
52106;SDS011;38105;52.968;5.974;2023-04-25T09:12:19;9.32;;;1.75;;
52106;SDS011;38105;52.968;5.974;2023-04-25T09:15:00;10.18;;;1.60;;
52106;SDS011;38105;52.968;5.974;2023-04-25T09:17:36;15.50;;;2.05;;
52106;SDS011;38105;52.968;5.974;2023-04-25T09:20:06;11.65;;;1.80;;
52106;SDS011;38105;52.968;5.974;2023-04-25T09:22:33;7.97;;;1.50;;
52106;SDS011;38105;52.968;5.974;2023-04-25T09:25:02;10.45;;;1.98;;
52106;SDS011;38105;52.968;5.974;2023-04-25T09:27:49;6.35;;;1.20;;
52106;SDS011;38105;52.968;5.974;2023-04-25T09:30:17;8.77;;;1.60;;
52106;SDS011;38105;52.968;5.974;2023-04-25T09:32:43;12.02;;;1.80;;
52106;SDS011;38105;52.968;5.974;2023-04-25T09:35:08;12.38;;;2.30;;
52106;SDS011;38105;52.968;5.974;2023-04-25T09:37:35;12.60;;;1.92;;
52106;SDS011;38105;52.968;5.974;2023-04-25T09:40:03;7.13;;;1.20;;
52106;SDS011;38105;52.968;5.974;2023-04-25T09:42:32;5.95;;;1.13;;
52106;SDS011;38105;52.968;5.974;2023-04-25T09:44:59;7.57;;;1.38;;
52106;SDS011;38105;52.968;5.974;2023-04-25T09:47:29;6.97;;;1.38;;
52106;SDS011;38105;52.968;5.974;2023-04-25T09:49:54;8.05;;;1.50;;
52106;SDS011;38105;52.968;5.974;2023-04-25T09:52:21;8.32;;;1.50;;
52106;SDS011;38105;52.968;5.974;2023-04-25T09:54:50;8.75;;;2.13;;
52106;SDS011;38105;52.968;5.974;2023-04-25T09:57:18;6.45;;;1.20;;
52106;SDS011;38105;52.968;5.974;2023-04-25T09:59:48;5.78;;;1.15;;
52106;SDS011;38105;52.968;5.974;2023-04-25T10:02:25;9.15;;;1.50;;
52106;SDS011;38105;52.968;5.974;2023-04-25T10:04:53;5.10;;;1.13;;
52106;SDS011;38105;52.968;5.974;2023-04-25T10:07:21;3.60;;;0.60;;
52106;SDS011;38105;52.968;5.974;2023-04-25T10:09:51;4.72;;;1.15;;
52106;SDS011;38105;52.968;5.974;2023-04-25T10:12:24;4.85;;;0.73;;
52106;SDS011;38105;52.968;5.974;2023-04-25T10:14:52;7.22;;;1.15;;
52106;SDS011;38105;52.968;5.974;2023-04-25T10:17:19;5.75;;;1.00;;
52106;SDS011;38105;52.968;5.974;2023-04-25T10:19:48;6.35;;;0.95;;
52106;SDS011;38105;52.968;5.974;2023-04-25T10:22:18;5.32;;;0.88;;
52106;SDS011;38105;52.968;5.974;2023-04-25T10:24:51;11.30;;;2.38;;
52106;SDS011;38105;52.968;5.974;2023-04-25T10:27:17;8.68;;;1.25;;
52106;SDS011;38105;52.968;5.974;2023-04-25T10:29:46;8.05;;;1.33;;
52106;SDS011;38105;52.968;5.974;2023-04-25T10:32:55;7.22;;;1.65;;
52106;SDS011;38105;52.968;5.974;2023-04-25T10:35:27;10.25;;;1.35;;
52106;SDS011;38105;52.968;5.974;2023-04-25T10:38:10;10.75;;;1.98;;
52106;SDS011;38105;52.968;5.974;2023-04-25T10:40:39;7.10;;;1.55;;
52106;SDS011;38105;52.968;5.974;2023-04-25T10:45:55;7.60;;;1.55;;
52106;SDS011;38105;52.968;5.974;2023-04-25T10:48:28;7.05;;;1.25;;
52106;SDS011;38105;52.968;5.974;2023-04-25T10:51:09;7.78;;;1.38;;
52106;SDS011;38105;52.968;5.974;2023-04-25T10:53:36;8.05;;;1.30;;
52106;SDS011;38105;52.968;5.974;2023-04-25T10:56:18;8.98;;;1.40;;
52106;SDS011;38105;52.968;5.974;2023-04-25T10:58:47;7.53;;;0.95;;
52106;SDS011;38105;52.968;5.974;2023-04-25T11:01:13;7.63;;;1.17;;
52106;SDS011;38105;52.968;5.974;2023-04-25T11:03:41;7.00;;;1.27;;
52106;SDS011;38105;52.968;5.974;2023-04-25T11:06:18;9.27;;;1.13;;
52106;SDS011;38105;52.968;5.974;2023-04-25T11:08:48;8.77;;;1.25;;
52106;SDS011;38105;52.968;5.974;2023-04-25T11:11:16;10.02;;;1.40;;
52106;SDS011;38105;52.968;5.974;2023-04-25T11:13:43;8.52;;;1.40;;
52106;SDS011;38105;52.968;5.974;2023-04-25T11:16:09;8.13;;;2.22;;
52106;SDS011;38105;52.968;5.974;2023-04-25T11:18:35;6.47;;;1.98;;
52106;SDS011;38105;52.968;5.974;2023-04-25T11:21:02;6.32;;;1.02;;
52106;SDS011;38105;52.968;5.974;2023-04-25T11:23:28;7.65;;;1.05;;
52106;SDS011;38105;52.968;5.974;2023-04-25T11:25:55;7.30;;;1.05;;
52106;SDS011;38105;52.968;5.974;2023-04-25T11:28:21;8.75;;;1.42;;
52106;SDS011;38105;52.968;5.974;2023-04-25T11:30:48;6.53;;;1.30;;
52106;SDS011;38105;52.968;5.974;2023-04-25T11:33:17;8.18;;;1.70;;
52106;SDS011;38105;52.968;5.974;2023-04-25T11:35:43;7.53;;;1.25;;
52106;SDS011;38105;52.968;5.974;2023-04-25T11:38:09;13.88;;;1.65;;
52106;SDS011;38105;52.968;5.974;2023-04-25T11:40:35;8.18;;;1.40;;
52106;SDS011;38105;52.968;5.974;2023-04-25T11:43:01;6.28;;;1.15;;
52106;SDS011;38105;52.968;5.974;2023-04-25T11:45:27;9.90;;;1.13;;
52106;SDS011;38105;52.968;5.974;2023-04-25T11:47:55;4.75;;;0.90;;
52106;SDS011;38105;52.968;5.974;2023-04-25T11:50:21;5.00;;;0.80;;
52106;SDS011;38105;52.968;5.974;2023-04-25T11:52:47;3.35;;;0.55;;
52106;SDS011;38105;52.968;5.974;2023-04-25T11:55:17;7.28;;;1.17;;
52106;SDS011;38105;52.968;5.974;2023-04-25T11:57:45;7.20;;;0.98;;
52106;SDS011;38105;52.968;5.974;2023-04-25T12:00:15;7.03;;;1.00;;
52106;SDS011;38105;52.968;5.974;2023-04-25T12:02:46;10.27;;;1.88;;
52106;SDS011;38105;52.968;5.974;2023-04-25T12:05:15;9.30;;;1.63;;
52106;SDS011;38105;52.968;5.974;2023-04-25T12:07:41;9.30;;;1.60;;
52106;SDS011;38105;52.968;5.974;2023-04-25T12:10:11;10.18;;;1.50;;
52106;SDS011;38105;52.968;5.974;2023-04-25T12:12:41;8.63;;;1.60;;
52106;SDS011;38105;52.968;5.974;2023-04-25T12:17:45;9.55;;;1.60;;
52106;SDS011;38105;52.968;5.974;2023-04-25T12:20:13;9.32;;;1.90;;
52106;SDS011;38105;52.968;5.974;2023-04-25T12:22:48;14.02;;;1.67;;
52106;SDS011;38105;52.968;5.974;2023-04-25T12:33:36;13.68;;;1.98;;
52106;SDS011;38105;52.968;5.974;2023-04-25T12:36:03;7.82;;;1.40;;
52106;SDS011;38105;52.968;5.974;2023-04-25T12:38:37;9.43;;;1.10;;
52106;SDS011;38105;52.968;5.974;2023-04-25T12:41:04;6.95;;;1.15;;
52106;SDS011;38105;52.968;5.974;2023-04-25T12:43:30;8.60;;;1.10;;
52106;SDS011;38105;52.968;5.974;2023-04-25T12:45:56;9.98;;;1.35;;
52106;SDS011;38105;52.968;5.974;2023-04-25T12:48:22;9.52;;;1.30;;
52106;SDS011;38105;52.968;5.974;2023-04-25T12:50:49;9.60;;;1.48;;
52106;SDS011;38105;52.968;5.974;2023-04-25T12:53:17;9.65;;;1.33;;
52106;SDS011;38105;52.968;5.974;2023-04-25T12:55:43;7.85;;;1.15;;
52106;SDS011;38105;52.968;5.974;2023-04-25T12:58:13;8.85;;;1.25;;
52106;SDS011;38105;52.968;5.974;2023-04-25T13:00:39;8.35;;;1.02;;
52106;SDS011;38105;52.968;5.974;2023-04-25T13:03:05;7.15;;;1.00;;
52106;SDS011;38105;52.968;5.974;2023-04-25T13:05:31;11.82;;;1.27;;
52106;SDS011;38105;52.968;5.974;2023-04-25T13:07:57;9.27;;;1.20;;
52106;SDS011;38105;52.968;5.974;2023-04-25T13:10:22;7.38;;;1.00;;
52106;SDS011;38105;52.968;5.974;2023-04-25T13:12:48;7.28;;;0.98;;
52106;SDS011;38105;52.968;5.974;2023-04-25T13:15:14;7.35;;;1.23;;
52106;SDS011;38105;52.968;5.974;2023-04-25T13:17:40;9.40;;;1.95;;
52106;SDS011;38105;52.968;5.974;2023-04-25T13:20:06;7.30;;;1.23;;
52106;SDS011;38105;52.968;5.974;2023-04-25T13:22:34;9.45;;;1.75;;
52106;SDS011;38105;52.968;5.974;2023-04-25T13:25:02;11.63;;;1.60;;
52106;SDS011;38105;52.968;5.974;2023-04-25T13:27:28;6.03;;;1.40;;
52106;SDS011;38105;52.968;5.974;2023-04-25T13:29:54;6.70;;;1.20;;
52106;SDS011;38105;52.968;5.974;2023-04-25T13:32:19;13.13;;;1.65;;
52106;SDS011;38105;52.968;5.974;2023-04-25T13:34:45;10.82;;;1.30;;
52106;SDS011;38105;52.968;5.974;2023-04-25T13:37:11;8.57;;;1.48;;
52106;SDS011;38105;52.968;5.974;2023-04-25T13:39:36;11.98;;;1.50;;
52106;SDS011;38105;52.968;5.974;2023-04-25T13:42:02;11.73;;;1.90;;
52106;SDS011;38105;52.968;5.974;2023-04-25T13:44:28;12.40;;;2.13;;
52106;SDS011;38105;52.968;5.974;2023-04-25T13:46:54;8.52;;;1.50;;
52106;SDS011;38105;52.968;5.974;2023-04-25T13:49:20;6.43;;;1.83;;
52106;SDS011;38105;52.968;5.974;2023-04-25T13:51:45;9.32;;;1.80;;
52106;SDS011;38105;52.968;5.974;2023-04-25T13:54:11;9.05;;;1.67;;
52106;SDS011;38105;52.968;5.974;2023-04-25T13:56:36;11.38;;;1.55;;
52106;SDS011;38105;52.968;5.974;2023-04-25T13:59:02;9.40;;;1.98;;
52106;SDS011;38105;52.968;5.974;2023-04-25T14:01:28;11.10;;;2.08;;
52106;SDS011;38105;52.968;5.974;2023-04-25T14:03:56;12.82;;;1.75;;
52106;SDS011;38105;52.968;5.974;2023-04-25T14:06:22;13.45;;;2.40;;
52106;SDS011;38105;52.968;5.974;2023-04-25T14:08:51;13.20;;;1.98;;
52106;SDS011;38105;52.968;5.974;2023-04-25T14:11:18;11.30;;;1.85;;
52106;SDS011;38105;52.968;5.974;2023-04-25T14:13:44;8.00;;;1.80;;
52106;SDS011;38105;52.968;5.974;2023-04-25T14:16:10;10.20;;;1.48;;
52106;SDS011;38105;52.968;5.974;2023-04-25T14:18:36;8.55;;;1.40;;
52106;SDS011;38105;52.968;5.974;2023-04-25T14:21:02;8.13;;;1.45;;
52106;SDS011;38105;52.968;5.974;2023-04-25T14:23:27;11.93;;;1.30;;
52106;SDS011;38105;52.968;5.974;2023-04-25T14:25:53;8.50;;;1.15;;
52106;SDS011;38105;52.968;5.974;2023-04-25T14:28:19;4.25;;;1.10;;
52106;SDS011;38105;52.968;5.974;2023-04-25T14:30:45;8.23;;;1.33;;
52106;SDS011;38105;52.968;5.974;2023-04-25T14:33:10;11.23;;;1.65;;
52106;SDS011;38105;52.968;5.974;2023-04-25T14:35:36;10.18;;;1.77;;
52106;SDS011;38105;52.968;5.974;2023-04-25T14:38:02;9.68;;;1.70;;
52106;SDS011;38105;52.968;5.974;2023-04-25T14:40:28;10.30;;;2.03;;
52106;SDS011;38105;52.968;5.974;2023-04-25T14:42:54;6.10;;;1.60;;
52106;SDS011;38105;52.968;5.974;2023-04-25T14:45:20;5.90;;;0.88;;
52106;SDS011;38105;52.968;5.974;2023-04-25T14:47:45;9.18;;;1.08;;
52106;SDS011;38105;52.968;5.974;2023-04-25T14:50:11;9.73;;;1.30;;
52106;SDS011;38105;52.968;5.974;2023-04-25T14:52:37;8.63;;;1.15;;